sensor_id;sensor_type;location;lat;lon;timestamp;P1;durP1;ratioP1;P2;durP2;ratioP2
74152;SDS011;62505;46.070;14.492;2022-09-09T00:01:23;5.75;;;4.22;;
74152;SDS011;62505;46.070;14.492;2022-09-09T00:03:59;5.68;;;4.53;;
74152;SDS011;62505;46.070;14.492;2022-09-09T00:06:45;4.82;;;4.20;;
74152;SDS011;62505;46.070;14.492;2022-09-09T00:09:17;4.93;;;4.43;;
74152;SDS011;62505;46.070;14.492;2022-09-09T00:11:51;6.25;;;4.47;;
74152;SDS011;62505;46.070;14.492;2022-09-09T00:14:23;5.28;;;4.53;;
74152;SDS011;62505;46.070;14.492;2022-09-09T00:17:02;7.43;;;4.18;;
74152;SDS011;62505;46.070;14.492;2022-09-09T00:19:40;5.00;;;4.20;;
74152;SDS011;62505;46.070;14.492;2022-09-09T00:22:18;5.90;;;3.78;;
74152;SDS011;62505;46.070;14.492;2022-09-09T00:24:47;4.80;;;4.30;;
74152;SDS011;62505;46.070;14.492;2022-09-09T00:27:23;5.28;;;4.05;;
74152;SDS011;62505;46.070;14.492;2022-09-09T00:30:12;6.95;;;4.10;;
74152;SDS011;62505;46.070;14.492;2022-09-09T00:32:47;5.63;;;3.83;;
74152;SDS011;62505;46.070;14.492;2022-09-09T00:35:17;7.65;;;4.50;;
74152;SDS011;62505;46.070;14.492;2022-09-09T00:37:50;4.47;;;3.97;;
74152;SDS011;62505;46.070;14.492;2022-09-09T00:40:24;4.78;;;3.65;;
74152;SDS011;62505;46.070;14.492;2022-09-09T00:43:06;5.43;;;3.92;;
74152;SDS011;62505;46.070;14.492;2022-09-09T00:48:39;6.65;;;4.65;;
74152;SDS011;62505;46.070;14.492;2022-09-09T00:51:17;4.95;;;3.95;;
74152;SDS011;62505;46.070;14.492;2022-09-09T00:53:58;4.70;;;4.18;;
74152;SDS011;62505;46.070;14.492;2022-09-09T00:56:37;4.65;;;4.00;;
74152;SDS011;62505;46.070;14.492;2022-09-09T00:59:14;6.47;;;4.38;;
74152;SDS011;62505;46.070;14.492;2022-09-09T01:01:52;6.60;;;4.30;;
74152;SDS011;62505;46.070;14.492;2022-09-09T01:04:21;5.75;;;4.93;;
74152;SDS011;62505;46.070;14.492;2022-09-09T01:06:57;4.85;;;4.15;;
74152;SDS011;62505;46.070;14.492;2022-09-09T01:09:32;6.47;;;3.90;;
74152;SDS011;62505;46.070;14.492;2022-09-09T01:12:09;5.88;;;5.25;;
74152;SDS011;62505;46.070;14.492;2022-09-09T01:14:42;5.32;;;4.10;;
74152;SDS011;62505;46.070;14.492;2022-09-09T01:17:13;5.50;;;4.40;;
74152;SDS011;62505;46.070;14.492;2022-09-09T01:19:49;5.47;;;4.55;;
74152;SDS011;62505;46.070;14.492;2022-09-09T01:22:32;7.32;;;4.60;;
74152;SDS011;62505;46.070;14.492;2022-09-09T01:25:15;5.65;;;4.70;;
74152;SDS011;62505;46.070;14.492;2022-09-09T01:27:57;6.55;;;4.57;;
74152;SDS011;62505;46.070;14.492;2022-09-09T01:30:27;5.43;;;4.93;;
74152;SDS011;62505;46.070;14.492;2022-09-09T01:32:55;8.30;;;5.32;;
74152;SDS011;62505;46.070;14.492;2022-09-09T01:35:34;7.90;;;5.60;;
74152;SDS011;62505;46.070;14.492;2022-09-09T01:38:09;6.78;;;5.20;;
74152;SDS011;62505;46.070;14.492;2022-09-09T01:40:36;6.47;;;5.45;;
74152;SDS011;62505;46.070;14.492;2022-09-09T01:43:05;7.18;;;5.40;;
74152;SDS011;62505;46.070;14.492;2022-09-09T01:45:32;6.68;;;5.10;;
74152;SDS011;62505;46.070;14.492;2022-09-09T01:48:00;6.60;;;5.07;;
74152;SDS011;62505;46.070;14.492;2022-09-09T01:50:28;7.32;;;5.32;;
74152;SDS011;62505;46.070;14.492;2022-09-09T01:52:56;6.80;;;5.05;;
74152;SDS011;62505;46.070;14.492;2022-09-09T01:55:28;7.47;;;5.72;;
74152;SDS011;62505;46.070;14.492;2022-09-09T01:58:00;8.10;;;5.78;;
74152;SDS011;62505;46.070;14.492;2022-09-09T02:00:44;6.20;;;5.50;;
74152;SDS011;62505;46.070;14.492;2022-09-09T02:03:18;8.02;;;6.03;;
74152;SDS011;62505;46.070;14.492;2022-09-09T02:05:51;7.28;;;5.45;;
74152;SDS011;62505;46.070;14.492;2022-09-09T02:08:26;8.30;;;6.25;;
74152;SDS011;62505;46.070;14.492;2022-09-09T02:11:09;9.80;;;6.80;;
74152;SDS011;62505;46.070;14.492;2022-09-09T02:13:41;8.30;;;5.90;;
74152;SDS011;62505;46.070;14.492;2022-09-09T02:16:12;9.75;;;6.90;;
74152;SDS011;62505;46.070;14.492;2022-09-09T02:18:44;8.90;;;5.60;;
74152;SDS011;62505;46.070;14.492;2022-09-09T02:21:17;9.02;;;6.22;;
74152;SDS011;62505;46.070;14.492;2022-09-09T02:23:46;8.15;;;6.72;;
74152;SDS011;62505;46.070;14.492;2022-09-09T02:26:17;9.23;;;7.13;;
74152;SDS011;62505;46.070;14.492;2022-09-09T02:28:54;10.57;;;7.72;;
74152;SDS011;62505;46.070;14.492;2022-09-09T02:31:32;10.55;;;8.15;;
74152;SDS011;62505;46.070;14.492;2022-09-09T02:34:02;11.93;;;7.88;;
74152;SDS011;62505;46.070;14.492;2022-09-09T02:36:32;11.00;;;7.57;;
74152;SDS011;62505;46.070;14.492;2022-09-09T02:39:02;8.13;;;7.00;;
74152;SDS011;62505;46.070;14.492;2022-09-09T02:41:32;9.55;;;7.72;;
74152;SDS011;62505;46.070;14.492;2022-09-09T02:44:04;9.88;;;7.32;;
74152;SDS011;62505;46.070;14.492;2022-09-09T02:46:35;10.18;;;7.80;;
74152;SDS011;62505;46.070;14.492;2022-09-09T02:49:11;7.93;;;6.85;;
74152;SDS011;62505;46.070;14.492;2022-09-09T02:51:45;9.43;;;7.25;;
74152;SDS011;62505;46.070;14.492;2022-09-09T02:54:21;9.88;;;7.45;;
74152;SDS011;62505;46.070;14.492;2022-09-09T02:56:56;11.00;;;7.68;;
74152;SDS011;62505;46.070;14.492;2022-09-09T02:59:30;9.88;;;7.72;;
74152;SDS011;62505;46.070;14.492;2022-09-09T03:01:57;11.55;;;8.18;;
74152;SDS011;62505;46.070;14.492;2022-09-09T03:04:24;10.65;;;7.75;;
74152;SDS011;62505;46.070;14.492;2022-09-09T03:06:55;11.20;;;7.57;;
74152;SDS011;62505;46.070;14.492;2022-09-09T03:09:21;9.52;;;7.07;;
74152;SDS011;62505;46.070;14.492;2022-09-09T03:11:48;10.48;;;7.18;;
74152;SDS011;62505;46.070;14.492;2022-09-09T03:14:15;7.93;;;6.45;;
74152;SDS011;62505;46.070;14.492;2022-09-09T03:16:47;8.50;;;6.93;;
74152;SDS011;62505;46.070;14.492;2022-09-09T03:19:14;8.23;;;6.35;;
74152;SDS011;62505;46.070;14.492;2022-09-09T03:21:41;8.88;;;6.88;;
74152;SDS011;62505;46.070;14.492;2022-09-09T03:24:08;7.68;;;6.20;;
74152;SDS011;62505;46.070;14.492;2022-09-09T03:26:35;7.68;;;5.80;;
74152;SDS011;62505;46.070;14.492;2022-09-09T03:29:02;9.38;;;6.53;;
74152;SDS011;62505;46.070;14.492;2022-09-09T03:31:31;8.25;;;6.20;;
74152;SDS011;62505;46.070;14.492;2022-09-09T03:33:59;9.13;;;6.72;;
74152;SDS011;62505;46.070;14.492;2022-09-09T03:36:33;7.05;;;6.20;;
74152;SDS011;62505;46.070;14.492;2022-09-09T03:39:00;8.88;;;6.75;;
74152;SDS011;62505;46.070;14.492;2022-09-09T03:41:28;7.85;;;6.25;;
74152;SDS011;62505;46.070;14.492;2022-09-09T03:43:55;9.70;;;6.70;;
74152;SDS011;62505;46.070;14.492;2022-09-09T03:46:23;6.93;;;6.00;;
74152;SDS011;62505;46.070;14.492;2022-09-09T03:48:52;8.82;;;6.05;;
74152;SDS011;62505;46.070;14.492;2022-09-09T03:51:20;8.07;;;5.90;;
74152;SDS011;62505;46.070;14.492;2022-09-09T03:53:48;8.82;;;7.22;;
74152;SDS011;62505;46.070;14.492;2022-09-09T03:56:15;7.95;;;6.57;;
74152;SDS011;62505;46.070;14.492;2022-09-09T03:58:42;9.75;;;6.63;;
74152;SDS011;62505;46.070;14.492;2022-09-09T04:01:10;8.07;;;6.05;;
74152;SDS011;62505;46.070;14.492;2022-09-09T04:03:39;7.03;;;5.70;;
74152;SDS011;62505;46.070;14.492;2022-09-09T04:06:08;6.97;;;6.07;;
74152;SDS011;62505;46.070;14.492;2022-09-09T04:08:38;7.13;;;5.78;;
74152;SDS011;62505;46.070;14.492;2022-09-09T04:11:05;6.93;;;5.70;;
74152;SDS011;62505;46.070;14.492;2022-09-09T04:13:32;7.45;;;5.60;;
74152;SDS011;62505;46.070;14.492;2022-09-09T04:16:00;6.72;;;5.60;;
74152;SDS011;62505;46.070;14.492;2022-09-09T04:18:29;9.43;;;6.32;;
74152;SDS011;62505;46.070;14.492;2022-09-09T04:21:00;7.72;;;5.65;;
74152;SDS011;62505;46.070;14.492;2022-09-09T04:23:28;7.03;;;5.82;;
74152;SDS011;62505;46.070;14.492;2022-09-09T04:25:58;7.97;;;5.75;;
74152;SDS011;62505;46.070;14.492;2022-09-09T04:28:26;7.65;;;6.15;;
74152;SDS011;62505;46.070;14.492;2022-09-09T04:30:54;7.68;;;5.90;;
74152;SDS011;62505;46.070;14.492;2022-09-09T04:33:23;7.60;;;6.18;;
74152;SDS011;62505;46.070;14.492;2022-09-09T04:35:51;10.70;;;5.85;;
74152;SDS011;62505;46.070;14.492;2022-09-09T04:38:20;7.20;;;6.00;;
74152;SDS011;62505;46.070;14.492;2022-09-09T04:40:48;7.57;;;5.07;;
74152;SDS011;62505;46.070;14.492;2022-09-09T04:43:18;6.13;;;4.93;;
74152;SDS011;62505;46.070;14.492;2022-09-09T04:45:46;7.25;;;5.40;;
74152;SDS011;62505;46.070;14.492;2022-09-09T04:48:14;9.00;;;5.15;;
74152;SDS011;62505;46.070;14.492;2022-09-09T04:50:41;7.30;;;5.07;;
74152;SDS011;62505;46.070;14.492;2022-09-09T04:53:08;6.63;;;5.47;;
74152;SDS011;62505;46.070;14.492;2022-09-09T04:55:35;6.07;;;5.38;;
74152;SDS011;62505;46.070;14.492;2022-09-09T04:58:03;6.53;;;5.32;;
74152;SDS011;62505;46.070;14.492;2022-09-09T05:00:32;7.28;;;5.28;;
74152;SDS011;62505;46.070;14.492;2022-09-09T05:03:02;7.68;;;4.68;;
74152;SDS011;62505;46.070;14.492;2022-09-09T05:05:30;12.15;;;5.50;;
74152;SDS011;62505;46.070;14.492;2022-09-09T05:08:00;5.82;;;4.60;;
74152;SDS011;62505;46.070;14.492;2022-09-09T05:10:28;9.40;;;4.03;;
74152;SDS011;62505;46.070;14.492;2022-09-09T05:12:55;5.65;;;4.15;;
74152;SDS011;62505;46.070;14.492;2022-09-09T05:15:22;4.68;;;3.85;;
74152;SDS011;62505;46.070;14.492;2022-09-09T05:17:50;4.22;;;3.58;;
74152;SDS011;62505;46.070;14.492;2022-09-09T05:20:18;4.80;;;3.55;;
74152;SDS011;62505;46.070;14.492;2022-09-09T05:22:45;5.72;;;3.50;;
74152;SDS011;62505;46.070;14.492;2022-09-09T05:25:12;4.10;;;3.33;;
74152;SDS011;62505;46.070;14.492;2022-09-09T05:27:39;4.93;;;3.58;;
74152;SDS011;62505;46.070;14.492;2022-09-09T05:30:06;4.47;;;3.50;;
74152;SDS011;62505;46.070;14.492;2022-09-09T05:32:34;7.55;;;3.28;;
74152;SDS011;62505;46.070;14.492;2022-09-09T05:35:03;5.50;;;2.80;;
74152;SDS011;62505;46.070;14.492;2022-09-09T05:37:30;5.28;;;3.58;;
74152;SDS011;62505;46.070;14.492;2022-09-09T05:39:57;5.28;;;3.15;;
74152;SDS011;62505;46.070;14.492;2022-09-09T05:42:29;3.70;;;2.90;;
74152;SDS011;62505;46.070;14.492;2022-09-09T05:44:56;9.65;;;3.00;;
74152;SDS011;62505;46.070;14.492;2022-09-09T05:47:23;3.95;;;2.92;;
74152;SDS011;62505;46.070;14.492;2022-09-09T05:49:52;4.75;;;2.88;;
74152;SDS011;62505;46.070;14.492;2022-09-09T05:52:21;4.45;;;2.30;;
74152;SDS011;62505;46.070;14.492;2022-09-09T05:54:48;5.30;;;2.58;;
74152;SDS011;62505;46.070;14.492;2022-09-09T05:57:15;9.45;;;3.75;;
74152;SDS011;62505;46.070;14.492;2022-09-09T05:59:43;3.08;;;2.40;;
74152;SDS011;62505;46.070;14.492;2022-09-09T06:02:10;2.75;;;2.40;;
74152;SDS011;62505;46.070;14.492;2022-09-09T06:04:38;3.90;;;2.47;;
74152;SDS011;62505;46.070;14.492;2022-09-09T06:07:05;3.05;;;2.58;;
74152;SDS011;62505;46.070;14.492;2022-09-09T06:09:33;4.13;;;2.58;;
74152;SDS011;62505;46.070;14.492;2022-09-09T06:12:00;4.63;;;2.80;;
74152;SDS011;62505;46.070;14.492;2022-09-09T06:14:27;3.88;;;2.55;;
74152;SDS011;62505;46.070;14.492;2022-09-09T06:16:54;4.13;;;2.40;;
74152;SDS011;62505;46.070;14.492;2022-09-09T06:19:21;2.92;;;2.30;;
74152;SDS011;62505;46.070;14.492;2022-09-09T06:21:49;5.05;;;2.40;;
74152;SDS011;62505;46.070;14.492;2022-09-09T06:24:16;3.30;;;2.75;;
74152;SDS011;62505;46.070;14.492;2022-09-09T06:26:45;5.25;;;2.10;;
74152;SDS011;62505;46.070;14.492;2022-09-09T06:29:12;3.85;;;2.50;;
74152;SDS011;62505;46.070;14.492;2022-09-09T06:31:39;6.07;;;2.15;;
74152;SDS011;62505;46.070;14.492;2022-09-09T06:34:07;2.90;;;2.38;;
74152;SDS011;62505;46.070;14.492;2022-09-09T06:36:35;2.97;;;2.30;;
74152;SDS011;62505;46.070;14.492;2022-09-09T06:39:03;4.53;;;2.50;;
74152;SDS011;62505;46.070;14.492;2022-09-09T06:41:31;3.60;;;2.25;;
74152;SDS011;62505;46.070;14.492;2022-09-09T06:44:00;4.28;;;2.42;;
74152;SDS011;62505;46.070;14.492;2022-09-09T06:46:28;2.30;;;2.10;;
74152;SDS011;62505;46.070;14.492;2022-09-09T06:48:58;3.75;;;1.90;;
74152;SDS011;62505;46.070;14.492;2022-09-09T06:51:26;3.97;;;2.08;;
74152;SDS011;62505;46.070;14.492;2022-09-09T06:53:55;4.07;;;2.00;;
74152;SDS011;62505;46.070;14.492;2022-09-09T06:56:25;2.20;;;2.00;;
74152;SDS011;62505;46.070;14.492;2022-09-09T06:58:54;2.45;;;1.98;;
74152;SDS011;62505;46.070;14.492;2022-09-09T07:01:25;2.50;;;2.03;;
74152;SDS011;62505;46.070;14.492;2022-09-09T07:03:53;1.98;;;1.70;;
74152;SDS011;62505;46.070;14.492;2022-09-09T07:06:23;2.83;;;1.90;;
74152;SDS011;62505;46.070;14.492;2022-09-09T07:08:52;2.65;;;2.08;;
74152;SDS011;62505;46.070;14.492;2022-09-09T07:11:20;3.65;;;2.03;;
74152;SDS011;62505;46.070;14.492;2022-09-09T07:13:48;2.83;;;1.77;;
74152;SDS011;62505;46.070;14.492;2022-09-09T07:16:16;2.70;;;2.10;;
74152;SDS011;62505;46.070;14.492;2022-09-09T07:18:47;3.03;;;1.90;;
74152;SDS011;62505;46.070;14.492;2022-09-09T07:21:15;2.25;;;1.73;;
74152;SDS011;62505;46.070;14.492;2022-09-09T07:23:44;3.10;;;1.73;;
74152;SDS011;62505;46.070;14.492;2022-09-09T07:26:11;3.83;;;1.88;;
74152;SDS011;62505;46.070;14.492;2022-09-09T07:28:39;2.53;;;2.00;;
74152;SDS011;62505;46.070;14.492;2022-09-09T07:31:07;3.60;;;2.13;;
74152;SDS011;62505;46.070;14.492;2022-09-09T07:33:41;2.80;;;2.20;;
74152;SDS011;62505;46.070;14.492;2022-09-09T07:36:12;2.63;;;1.65;;
74152;SDS011;62505;46.070;14.492;2022-09-09T07:38:41;3.03;;;2.03;;
74152;SDS011;62505;46.070;14.492;2022-09-09T07:41:11;2.50;;;1.80;;
74152;SDS011;62505;46.070;14.492;2022-09-09T07:43:40;2.20;;;2.00;;
74152;SDS011;62505;46.070;14.492;2022-09-09T07:46:07;4.20;;;2.00;;
74152;SDS011;62505;46.070;14.492;2022-09-09T07:48:35;3.40;;;2.13;;
74152;SDS011;62505;46.070;14.492;2022-09-09T07:51:03;2.90;;;1.92;;
74152;SDS011;62505;46.070;14.492;2022-09-09T07:53:33;2.28;;;1.80;;
74152;SDS011;62505;46.070;14.492;2022-09-09T07:56:05;2.08;;;1.70;;
74152;SDS011;62505;46.070;14.492;2022-09-09T07:58:34;3.33;;;2.30;;
74152;SDS011;62505;46.070;14.492;2022-09-09T08:01:05;3.58;;;2.00;;
74152;SDS011;62505;46.070;14.492;2022-09-09T08:03:33;2.70;;;2.10;;
74152;SDS011;62505;46.070;14.492;2022-09-09T08:06:01;3.13;;;2.00;;
74152;SDS011;62505;46.070;14.492;2022-09-09T08:08:29;2.15;;;1.95;;
74152;SDS011;62505;46.070;14.492;2022-09-09T08:11:02;2.10;;;1.88;;
74152;SDS011;62505;46.070;14.492;2022-09-09T08:13:30;2.67;;;2.20;;
74152;SDS011;62505;46.070;14.492;2022-09-09T08:16:03;3.53;;;1.85;;
74152;SDS011;62505;46.070;14.492;2022-09-09T08:18:32;3.22;;;1.80;;
74152;SDS011;62505;46.070;14.492;2022-09-09T08:21:04;2.50;;;1.95;;
74152;SDS011;62505;46.070;14.492;2022-09-09T08:23:33;3.28;;;2.30;;
74152;SDS011;62505;46.070;14.492;2022-09-09T08:26:05;3.92;;;2.30;;
74152;SDS011;62505;46.070;14.492;2022-09-09T08:28:34;2.00;;;1.80;;
74152;SDS011;62505;46.070;14.492;2022-09-09T08:31:10;2.20;;;2.00;;
74152;SDS011;62505;46.070;14.492;2022-09-09T08:33:39;2.78;;;1.90;;
74152;SDS011;62505;46.070;14.492;2022-09-09T08:36:08;3.33;;;1.98;;
74152;SDS011;62505;46.070;14.492;2022-09-09T08:38:36;3.85;;;1.98;;
74152;SDS011;62505;46.070;14.492;2022-09-09T08:44:04;2.83;;;1.90;;
74152;SDS011;62505;46.070;14.492;2022-09-09T08:46:39;4.07;;;1.95;;
74152;SDS011;62505;46.070;14.492;2022-09-09T08:49:17;2.38;;;2.00;;
74152;SDS011;62505;46.070;14.492;2022-09-09T08:51:53;3.97;;;2.20;;
74152;SDS011;62505;46.070;14.492;2022-09-09T08:54:22;2.72;;;1.95;;
74152;SDS011;62505;46.070;14.492;2022-09-09T08:56:51;3.35;;;2.20;;
74152;SDS011;62505;46.070;14.492;2022-09-09T08:59:18;3.90;;;2.20;;
74152;SDS011;62505;46.070;14.492;2022-09-09T09:01:54;5.50;;;2.10;;
74152;SDS011;62505;46.070;14.492;2022-09-09T09:04:37;3.15;;;1.98;;
74152;SDS011;62505;46.070;14.492;2022-09-09T09:07:14;2.47;;;1.85;;
74152;SDS011;62505;46.070;14.492;2022-09-09T09:09:53;3.78;;;2.00;;
74152;SDS011;62505;46.070;14.492;2022-09-09T09:12:26;3.78;;;1.90;;
74152;SDS011;62505;46.070;14.492;2022-09-09T09:14:57;2.75;;;2.22;;
74152;SDS011;62505;46.070;14.492;2022-09-09T09:17:26;2.75;;;1.90;;
74152;SDS011;62505;46.070;14.492;2022-09-09T09:19:56;2.03;;;1.75;;
74152;SDS011;62505;46.070;14.492;2022-09-09T09:22:26;2.25;;;1.85;;
74152;SDS011;62505;46.070;14.492;2022-09-09T09:25:00;2.05;;;1.85;;
74152;SDS011;62505;46.070;14.492;2022-09-09T09:27:39;2.22;;;1.77;;
74152;SDS011;62505;46.070;14.492;2022-09-09T09:30:13;2.75;;;1.90;;
74152;SDS011;62505;46.070;14.492;2022-09-09T09:32:44;2.03;;;1.80;;
74152;SDS011;62505;46.070;14.492;2022-09-09T09:35:17;3.60;;;1.88;;
74152;SDS011;62505;46.070;14.492;2022-09-09T09:37:44;2.35;;;1.80;;
74152;SDS011;62505;46.070;14.492;2022-09-09T09:40:12;2.83;;;1.98;;
74152;SDS011;62505;46.070;14.492;2022-09-09T09:42:48;1.95;;;1.80;;
74152;SDS011;62505;46.070;14.492;2022-09-09T09:45:26;2.63;;;1.90;;
74152;SDS011;62505;46.070;14.492;2022-09-09T09:48:00;2.08;;;1.83;;
74152;SDS011;62505;46.070;14.492;2022-09-09T09:50:29;2.17;;;1.70;;
74152;SDS011;62505;46.070;14.492;2022-09-09T09:52:58;1.98;;;1.80;;
74152;SDS011;62505;46.070;14.492;2022-09-09T09:55:26;1.70;;;1.50;;
74152;SDS011;62505;46.070;14.492;2022-09-09T09:58:01;3.55;;;1.90;;
74152;SDS011;62505;46.070;14.492;2022-09-09T10:00:29;4.30;;;1.85;;
74152;SDS011;62505;46.070;14.492;2022-09-09T10:02:56;2.35;;;1.60;;
74152;SDS011;62505;46.070;14.492;2022-09-09T10:05:26;2.33;;;1.83;;
74152;SDS011;62505;46.070;14.492;2022-09-09T10:08:00;2.58;;;2.10;;
74152;SDS011;62505;46.070;14.492;2022-09-09T10:10:37;3.00;;;1.90;;
74152;SDS011;62505;46.070;14.492;2022-09-09T10:13:18;4.40;;;1.80;;
74152;SDS011;62505;46.070;14.492;2022-09-09T10:15:53;2.35;;;1.73;;
74152;SDS011;62505;46.070;14.492;2022-09-09T10:21:32;2.72;;;1.90;;
74152;SDS011;62505;46.070;14.492;2022-09-09T10:24:25;2.20;;;1.95;;
74152;SDS011;62505;46.070;14.492;2022-09-09T10:27:10;2.50;;;1.85;;
74152;SDS011;62505;46.070;14.492;2022-09-09T10:29:50;1.63;;;1.52;;
74152;SDS011;62505;46.070;14.492;2022-09-09T10:32:30;1.63;;;1.52;;
74152;SDS011;62505;46.070;14.492;2022-09-09T10:35:04;3.65;;;1.60;;
74152;SDS011;62505;46.070;14.492;2022-09-09T10:37:55;2.08;;;1.77;;
74152;SDS011;62505;46.070;14.492;2022-09-09T10:40:37;2.47;;;1.73;;
74152;SDS011;62505;46.070;14.492;2022-09-09T10:43:12;3.05;;;1.48;;
74152;SDS011;62505;46.070;14.492;2022-09-09T10:45:49;1.98;;;1.75;;
74152;SDS011;62505;46.070;14.492;2022-09-09T10:48:30;1.92;;;1.70;;
74152;SDS011;62505;46.070;14.492;2022-09-09T10:51:11;1.88;;;1.67;;
74152;SDS011;62505;46.070;14.492;2022-09-09T10:53:50;1.80;;;1.50;;
74152;SDS011;62505;46.070;14.492;2022-09-09T10:56:24;2.28;;;1.75;;
74152;SDS011;62505;46.070;14.492;2022-09-09T10:58:55;2.00;;;1.90;;
74152;SDS011;62505;46.070;14.492;2022-09-09T11:01:28;2.35;;;1.85;;
74152;SDS011;62505;46.070;14.492;2022-09-09T11:04:00;1.58;;;1.48;;
74152;SDS011;62505;46.070;14.492;2022-09-09T11:06:31;2.38;;;1.65;;
74152;SDS011;62505;46.070;14.492;2022-09-09T11:09:03;3.55;;;1.67;;
74152;SDS011;62505;46.070;14.492;2022-09-09T11:11:33;1.58;;;1.48;;
74152;SDS011;62505;46.070;14.492;2022-09-09T11:14:03;2.22;;;1.60;;
74152;SDS011;62505;46.070;14.492;2022-09-09T11:16:38;1.63;;;1.48;;
74152;SDS011;62505;46.070;14.492;2022-09-09T11:19:11;1.80;;;1.45;;
74152;SDS011;62505;46.070;14.492;2022-09-09T11:21:45;2.58;;;1.80;;
74152;SDS011;62505;46.070;14.492;2022-09-09T11:24:14;3.15;;;1.60;;
74152;SDS011;62505;46.070;14.492;2022-09-09T11:26:48;2.50;;;1.75;;
74152;SDS011;62505;46.070;14.492;2022-09-09T11:32:17;2.28;;;1.50;;
74152;SDS011;62505;46.070;14.492;2022-09-09T11:34:54;1.90;;;1.77;;
74152;SDS011;62505;46.070;14.492;2022-09-09T11:37:36;3.92;;;1.50;;
74152;SDS011;62505;46.070;14.492;2022-09-09T11:40:21;2.97;;;1.95;;
74152;SDS011;62505;46.070;14.492;2022-09-09T11:43:00;3.78;;;2.13;;
74152;SDS011;62505;46.070;14.492;2022-09-09T11:45:29;3.05;;;1.73;;
74152;SDS011;62505;46.070;14.492;2022-09-09T11:47:59;2.13;;;1.60;;
74152;SDS011;62505;46.070;14.492;2022-09-09T11:50:29;3.90;;;1.80;;
74152;SDS011;62505;46.070;14.492;2022-09-09T11:56:00;3.65;;;1.63;;
74152;SDS011;62505;46.070;14.492;2022-09-09T11:58:34;3.70;;;1.70;;
74152;SDS011;62505;46.070;14.492;2022-09-09T12:01:15;3.60;;;1.50;;
74152;SDS011;62505;46.070;14.492;2022-09-09T12:03:59;3.83;;;1.77;;
74152;SDS011;62505;46.070;14.492;2022-09-09T12:06:42;5.35;;;1.60;;
74152;SDS011;62505;46.070;14.492;2022-09-09T12:09:22;2.35;;;1.73;;
74152;SDS011;62505;46.070;14.492;2022-09-09T12:12:04;4.85;;;2.00;;
74152;SDS011;62505;46.070;14.492;2022-09-09T12:14:35;4.70;;;1.98;;
74152;SDS011;62505;46.070;14.492;2022-09-09T12:17:17;1.95;;;1.70;;
74152;SDS011;62505;46.070;14.492;2022-09-09T12:19:47;2.95;;;1.77;;
74152;SDS011;62505;46.070;14.492;2022-09-09T12:22:29;2.42;;;1.40;;
74152;SDS011;62505;46.070;14.492;2022-09-09T12:25:06;3.25;;;1.63;;
74152;SDS011;62505;46.070;14.492;2022-09-09T12:27:43;1.90;;;1.70;;
74152;SDS011;62505;46.070;14.492;2022-09-09T12:30:15;2.65;;;1.75;;
74152;SDS011;62505;46.070;14.492;2022-09-09T12:32:44;3.08;;;1.70;;
74152;SDS011;62505;46.070;14.492;2022-09-09T12:35:13;2.67;;;1.77;;
74152;SDS011;62505;46.070;14.492;2022-09-09T12:37:47;3.20;;;1.88;;
74152;SDS011;62505;46.070;14.492;2022-09-09T12:40:20;3.05;;;1.48;;
74152;SDS011;62505;46.070;14.492;2022-09-09T12:42:48;1.77;;;1.60;;
74152;SDS011;62505;46.070;14.492;2022-09-09T12:45:16;3.35;;;1.58;;
74152;SDS011;62505;46.070;14.492;2022-09-09T12:47:45;1.75;;;1.40;;
74152;SDS011;62505;46.070;14.492;2022-09-09T12:50:17;1.90;;;1.52;;
74152;SDS011;62505;46.070;14.492;2022-09-09T12:52:47;1.65;;;1.50;;
74152;SDS011;62505;46.070;14.492;2022-09-09T12:55:17;4.28;;;1.50;;
74152;SDS011;62505;46.070;14.492;2022-09-09T12:57:45;2.47;;;1.70;;
74152;SDS011;62505;46.070;14.492;2022-09-09T13:00:15;2.05;;;1.27;;
74152;SDS011;62505;46.070;14.492;2022-09-09T13:02:46;4.50;;;1.65;;
74152;SDS011;62505;46.070;14.492;2022-09-09T13:05:17;2.55;;;1.50;;
74152;SDS011;62505;46.070;14.492;2022-09-09T13:07:47;1.88;;;1.52;;
74152;SDS011;62505;46.070;14.492;2022-09-09T13:10:15;2.35;;;1.60;;
74152;SDS011;62505;46.070;14.492;2022-09-09T13:12:49;3.83;;;1.60;;
74152;SDS011;62505;46.070;14.492;2022-09-09T13:15:19;1.92;;;1.45;;
74152;SDS011;62505;46.070;14.492;2022-09-09T13:17:51;2.08;;;1.52;;
74152;SDS011;62505;46.070;14.492;2022-09-09T13:20:22;3.40;;;1.75;;
74152;SDS011;62505;46.070;14.492;2022-09-09T13:22:50;2.38;;;1.75;;
74152;SDS011;62505;46.070;14.492;2022-09-09T13:25:23;4.45;;;2.00;;
74152;SDS011;62505;46.070;14.492;2022-09-09T13:27:52;2.13;;;1.40;;
74152;SDS011;62505;46.070;14.492;2022-09-09T13:30:26;2.60;;;1.70;;
74152;SDS011;62505;46.070;14.492;2022-09-09T13:33:01;2.80;;;1.35;;
74152;SDS011;62505;46.070;14.492;2022-09-09T13:35:34;2.63;;;1.60;;
74152;SDS011;62505;46.070;14.492;2022-09-09T13:38:08;3.95;;;1.75;;
74152;SDS011;62505;46.070;14.492;2022-09-09T13:40:35;1.85;;;1.70;;
74152;SDS011;62505;46.070;14.492;2022-09-09T13:43:03;3.25;;;1.60;;
74152;SDS011;62505;46.070;14.492;2022-09-09T13:45:30;2.50;;;1.77;;
74152;SDS011;62505;46.070;14.492;2022-09-09T13:47:59;2.22;;;1.85;;
74152;SDS011;62505;46.070;14.492;2022-09-09T13:50:37;3.30;;;1.83;;
74152;SDS011;62505;46.070;14.492;2022-09-09T13:53:04;2.55;;;1.42;;
74152;SDS011;62505;46.070;14.492;2022-09-09T13:55:30;2.10;;;1.50;;
74152;SDS011;62505;46.070;14.492;2022-09-09T13:57:58;1.90;;;1.67;;
74152;SDS011;62505;46.070;14.492;2022-09-09T14:00:27;3.15;;;1.70;;
74152;SDS011;62505;46.070;14.492;2022-09-09T14:02:56;2.00;;;1.50;;
74152;SDS011;62505;46.070;14.492;2022-09-09T14:05:25;2.78;;;1.50;;
74152;SDS011;62505;46.070;14.492;2022-09-09T14:07:53;2.25;;;1.73;;
74152;SDS011;62505;46.070;14.492;2022-09-09T14:10:20;2.88;;;1.60;;
74152;SDS011;62505;46.070;14.492;2022-09-09T14:12:47;2.30;;;1.67;;
74152;SDS011;62505;46.070;14.492;2022-09-09T14:15:14;4.43;;;1.80;;
74152;SDS011;62505;46.070;14.492;2022-09-09T14:17:41;3.20;;;1.75;;
74152;SDS011;62505;46.070;14.492;2022-09-09T14:20:09;2.42;;;2.15;;
74152;SDS011;62505;46.070;14.492;2022-09-09T14:22:40;1.95;;;1.52;;
74152;SDS011;62505;46.070;14.492;2022-09-09T14:25:10;4.50;;;1.63;;
74152;SDS011;62505;46.070;14.492;2022-09-09T14:27:38;2.67;;;1.70;;
74152;SDS011;62505;46.070;14.492;2022-09-09T14:30:05;3.05;;;2.17;;
74152;SDS011;62505;46.070;14.492;2022-09-09T14:32:33;3.42;;;2.00;;
74152;SDS011;62505;46.070;14.492;2022-09-09T14:35:00;2.88;;;1.80;;
74152;SDS011;62505;46.070;14.492;2022-09-09T14:37:27;2.45;;;1.80;;
74152;SDS011;62505;46.070;14.492;2022-09-09T14:39:56;1.88;;;1.60;;
74152;SDS011;62505;46.070;14.492;2022-09-09T14:42:24;3.22;;;1.80;;
74152;SDS011;62505;46.070;14.492;2022-09-09T14:44:51;2.15;;;1.77;;
74152;SDS011;62505;46.070;14.492;2022-09-09T14:47:18;2.20;;;1.60;;
74152;SDS011;62505;46.070;14.492;2022-09-09T14:49:45;3.17;;;1.80;;
74152;SDS011;62505;46.070;14.492;2022-09-09T14:52:14;6.20;;;2.00;;
74152;SDS011;62505;46.070;14.492;2022-09-09T14:54:41;1.77;;;1.65;;
74152;SDS011;62505;46.070;14.492;2022-09-09T14:57:08;2.83;;;1.80;;
74152;SDS011;62505;46.070;14.492;2022-09-09T14:59:36;2.30;;;1.70;;
74152;SDS011;62505;46.070;14.492;2022-09-09T15:02:03;2.83;;;1.70;;
74152;SDS011;62505;46.070;14.492;2022-09-09T15:04:30;4.85;;;1.80;;
74152;SDS011;62505;46.070;14.492;2022-09-09T15:06:57;2.35;;;1.70;;
74152;SDS011;62505;46.070;14.492;2022-09-09T15:09:24;2.25;;;1.88;;
74152;SDS011;62505;46.070;14.492;2022-09-09T15:11:51;2.72;;;1.60;;